Time;durP1;ratioP1;P1;durP2;ratioP2;P2;SDS_P1;SDS_P2;PMS_P1;PMS_P2;Temp;Humidity;BMP_temperature;BMP_pressure;BME280_temperature;BME280_humidity;BME280_pressure;Samples;Min_cycle;Max_cycle;Signal;HPM_P1;HPM_P2
2022/11/23 00:02:21;;;;;;;5.37;4.47;;;2.50;99.90;;;;;;5089909;28;20535;-80
2022/11/23 00:04:48;;;;;;;6.17;4.60;;;2.50;99.90;;;;;;5091888;28;20461;-81
2022/11/23 00:07:15;;;;;;;5.23;4.23;;;2.60;99.90;;;;;;5094228;28;20449;-80
2022/11/23 00:09:42;;;;;;;6.40;5.50;;;2.60;99.90;;;;;;5093095;28;20528;-80
2022/11/23 00:12:09;;;;;;;6.30;5.00;;;2.50;99.90;;;;;;5093359;28;20461;-80
2022/11/23 00:14:36;;;;;;;3.80;3.50;;;2.50;99.90;;;;;;5100563;28;20454;-80
2022/11/23 00:17:05;;;;;;;3.90;3.60;;;2.50;99.90;;;;;;5095480;28;20551;-80
2022/11/23 00:19:31;;;;;;;5.30;4.17;;;2.60;99.90;;;;;;5094768;28;20524;-81
2022/11/23 00:21:58;;;;;;;5.47;4.97;;;2.50;99.90;;;;;;5100307;28;20442;-80
2022/11/23 00:24:25;;;;;;;6.80;5.70;;;2.60;99.90;;;;;;5101277;28;20825;-80
2022/11/23 00:26:52;;;;;;;6.07;5.47;;;2.60;99.90;;;;;;5096000;28;20978;-80
2022/11/23 00:29:19;;;;;;;7.13;6.53;;;2.60;99.90;;;;;;5087389;28;20458;-80
2022/11/23 00:31:46;;;;;;;6.13;5.53;;;2.60;99.90;;;;;;5094159;28;20520;-80
2022/11/23 00:34:16;;;;;;;5.50;4.77;;;2.60;99.90;;;;;;5091406;28;20488;-80
2022/11/23 00:36:43;;;;;;;4.70;4.30;;;2.70;99.90;;;;;;5093945;28;20516;-80
2022/11/23 00:39:10;;;;;;;6.23;5.60;;;2.70;99.90;;;;;;5093473;28;20725;-80
2022/11/23 00:41:36;;;;;;;6.23;5.63;;;2.80;99.90;;;;;;5094847;28;20490;-80
2022/11/23 00:44:04;;;;;;;6.93;5.27;;;2.80;99.90;;;;;;5088289;28;20457;-80
2022/11/23 00:46:31;;;;;;;5.60;4.90;;;2.70;99.90;;;;;;5100779;27;20458;-81
2022/11/23 00:48:59;;;;;;;6.47;5.13;;;2.70;99.90;;;;;;5092918;28;20486;-80
2022/11/23 00:51:29;;;;;;;5.63;4.40;;;2.70;99.90;;;;;;5086028;28;20638;-80
2022/11/23 00:53:56;;;;;;;4.83;3.93;;;2.70;99.90;;;;;;5094681;28;20606;-80
2022/11/23 00:56:23;;;;;;;5.47;4.73;;;2.70;99.90;;;;;;5094159;28;20544;-80
2022/11/23 00:58:51;;;;;;;3.40;3.10;;;2.60;99.90;;;;;;5092555;28;20493;-80
2022/11/23 01:01:20;;;;;;;4.97;4.23;;;2.60;99.90;;;;;;5087632;28;20824;-80
2022/11/23 01:03:48;;;;;;;3.90;3.57;;;2.70;99.90;;;;;;5095804;28;20527;-80
2022/11/23 01:06:17;;;;;;;3.73;3.33;;;2.70;99.90;;;;;;5091571;28;20862;-80
2022/11/23 01:08:49;;;;;;;4.10;3.80;;;2.70;99.90;;;;;;5091092;28;20484;-80
2022/11/23 01:11:16;;;;;;;5.67;4.37;;;2.70;99.90;;;;;;5090672;28;20833;-80
2022/11/23 01:13:43;;;;;;;3.83;3.50;;;2.70;99.90;;;;;;5088030;28;20771;-80
2022/11/23 01:16:13;;;;;;;5.33;3.83;;;2.70;99.90;;;;;;5092264;28;20462;-81
2022/11/23 01:18:40;;;;;;;4.83;4.33;;;2.70;99.90;;;;;;5086713;28;20506;-80
2022/11/23 01:21:08;;;;;;;4.73;4.17;;;2.70;99.90;;;;;;5088495;28;20938;-80
2022/11/23 01:23:35;;;;;;;4.43;4.00;;;2.80;99.90;;;;;;5091553;28;20471;-80
2022/11/23 01:26:06;;;;;;;4.50;3.73;;;2.70;99.90;;;;;;5101326;28;20751;-80
2022/11/23 01:28:34;;;;;;;4.27;3.90;;;2.70;99.90;;;;;;5085229;28;20477;-80
2022/11/23 01:31:06;;;;;;;7.53;5.47;;;2.70;99.90;;;;;;5088334;28;20458;-80
2022/11/23 01:33:33;;;;;;;4.17;3.87;;;2.80;99.90;;;;;;5087269;28;20451;-80
2022/11/23 01:36:00;;;;;;;5.23;4.30;;;2.80;99.90;;;;;;5094553;28;20461;-80
2022/11/23 01:38:27;;;;;;;4.07;3.50;;;2.90;99.90;;;;;;5092648;28;20883;-80
2022/11/23 01:40:54;;;;;;;7.90;4.40;;;2.80;99.90;;;;;;5093609;28;20705;-80
2022/11/23 01:43:22;;;;;;;6.67;3.93;;;2.70;99.90;;;;;;5088916;28;20803;-80
2022/11/23 01:45:57;;;;;;;6.80;5.10;;;2.80;99.90;;;;;;5091790;28;20844;-80
2022/11/23 01:48:30;;;;;;;5.30;4.43;;;2.70;99.90;;;;;;5093852;28;20457;-80
2022/11/23 01:51:00;;;;;;;4.23;3.67;;;2.70;99.90;;;;;;5085225;28;20462;-80
2022/11/23 01:53:30;;;;;;;5.53;4.70;;;2.70;99.90;;;;;;5085016;28;20603;-80
2022/11/23 01:56:01;;;;;;;4.73;4.33;;;2.70;99.90;;;;;;5089052;28;20814;-80
2022/11/23 01:58:34;;;;;;;4.40;3.60;;;2.70;99.90;;;;;;5086603;28;20482;-80
2022/11/23 02:01:02;;;;;;;5.20;4.63;;;2.70;99.90;;;;;;5093138;28;20459;-79
2022/11/23 02:03:30;;;;;;;5.03;4.33;;;2.70;99.90;;;;;;5084325;28;20482;-79
2022/11/23 02:06:02;;;;;;;7.47;5.03;;;2.70;99.90;;;;;;5084844;28;20534;-79
2022/11/23 02:08:31;;;;;;;5.47;4.97;;;2.70;99.90;;;;;;5086897;28;21081;-79
2022/11/23 02:10:59;;;;;;;5.50;5.00;;;2.70;99.90;;;;;;5097822;28;20967;-79
2022/11/23 02:13:29;;;;;;;4.50;4.10;;;2.70;99.90;;;;;;5100988;28;20945;-80
2022/11/23 02:15:57;;;;;;;6.03;4.87;;;2.70;99.90;;;;;;5098627;28;20463;-80
2022/11/23 02:18:28;;;;;;;5.40;3.63;;;2.70;99.90;;;;;;5099585;28;20998;-80
2022/11/23 02:20:56;;;;;;;5.67;5.03;;;2.70;99.90;;;;;;5095245;28;20489;-80
2022/11/23 02:23:34;;;;;;;6.70;5.27;;;2.70;99.90;;;;;;5096594;28;20522;-80
2022/11/23 02:26:06;;;;;;;7.70;5.47;;;2.70;99.90;;;;;;5101027;28;20791;-79
2022/11/23 02:28:36;;;;;;;6.57;4.67;;;2.80;99.90;;;;;;5093069;28;20902;-80
2022/11/23 02:31:04;;;;;;;4.30;3.90;;;2.80;99.90;;;;;;5104298;28;20792;-79
2022/11/23 02:33:31;;;;;;;4.97;4.23;;;2.70;99.90;;;;;;5102637;28;21003;-79
2022/11/23 02:36:00;;;;;;;5.60;4.90;;;2.90;99.90;;;;;;5104244;28;20457;-79
2022/11/23 02:38:30;;;;;;;3.93;3.40;;;2.90;99.90;;;;;;5097769;28;20489;-80
2022/11/23 02:40:58;;;;;;;5.70;4.90;;;2.90;99.90;;;;;;5088661;28;20843;-80
2022/11/23 02:43:26;;;;;;;4.57;4.03;;;2.80;99.90;;;;;;5090851;28;20476;-80
2022/11/23 02:45:56;;;;;;;4.93;4.30;;;2.80;99.90;;;;;;5096428;28;20493;-80
2022/11/23 02:48:23;;;;;;;6.03;5.30;;;2.90;99.90;;;;;;5093945;28;20467;-80
2022/11/23 02:50:50;;;;;;;5.77;4.97;;;2.90;99.90;;;;;;5087870;28;20540;-80
2022/11/23 02:53:17;;;;;;;5.43;4.77;;;2.80;99.90;;;;;;5099353;28;20523;-80
2022/11/23 02:55:44;;;;;;;6.07;4.33;;;2.80;99.90;;;;;;5097768;28;20512;-80
2022/11/23 02:58:12;;;;;;;5.63;5.07;;;2.80;99.90;;;;;;5096618;28;20876;-80
2022/11/23 03:00:41;;;;;;;5.50;4.93;;;2.80;99.90;;;;;;5092704;28;20473;-80
2022/11/23 03:03:07;;;;;;;7.23;5.10;;;2.80;99.90;;;;;;5093878;28;20473;-79
2022/11/23 03:05:35;;;;;;;6.40;5.80;;;2.80;99.90;;;;;;5101790;28;20453;-79
2022/11/23 03:08:02;;;;;;;5.33;4.83;;;2.90;99.90;;;;;;5107488;28;20519;-79
2022/11/23 03:10:29;;;;;;;8.70;6.33;;;2.90;99.90;;;;;;5093766;27;20467;-79
2022/11/23 03:12:57;;;;;;;6.50;5.70;;;2.90;99.90;;;;;;5093626;28;20539;-80
2022/11/23 03:15:24;;;;;;;6.13;4.97;;;2.90;99.90;;;;;;5094728;28;20958;-79
2022/11/23 03:17:53;;;;;;;6.03;5.37;;;2.80;99.90;;;;;;5087211;28;20825;-80
2022/11/23 03:20:20;;;;;;;7.33;5.67;;;2.80;99.90;;;;;;5090608;28;20906;-79
2022/11/23 03:22:47;;;;;;;9.60;5.37;;;2.80;99.90;;;;;;5086402;28;20524;-79
2022/11/23 03:25:14;;;;;;;7.07;5.50;;;2.80;99.90;;;;;;5097529;28;20522;-80
2022/11/23 03:27:41;;;;;;;6.57;5.80;;;2.80;99.90;;;;;;5092130;28;21018;-80
2022/11/23 03:30:09;;;;;;;10.43;6.50;;;2.90;99.90;;;;;;5097461;28;20530;-80
2022/11/23 03:32:36;;;;;;;7.10;6.03;;;2.80;99.90;;;;;;5088195;28;20519;-79
2022/11/23 03:35:06;;;;;;;6.47;5.83;;;2.90;99.90;;;;;;5097206;28;20464;-80
2022/11/23 03:37:33;;;;;;;6.70;5.63;;;2.80;99.90;;;;;;5086687;28;20991;-79
2022/11/23 03:40:00;;;;;;;6.30;5.37;;;2.80;99.90;;;;;;5098318;28;20465;-80
2022/11/23 03:42:27;;;;;;;8.20;6.27;;;2.90;99.90;;;;;;5087912;28;20862;-80
2022/11/23 03:44:54;;;;;;;6.07;5.47;;;2.90;99.90;;;;;;5095570;28;20454;-79
2022/11/23 03:47:21;;;;;;;8.23;6.57;;;2.90;99.90;;;;;;5091301;28;20727;-80
2022/11/23 03:49:48;;;;;;;5.13;4.37;;;3.00;99.90;;;;;;5091282;28;20478;-79
2022/11/23 03:52:17;;;;;;;6.73;5.10;;;3.00;99.90;;;;;;5086202;28;20447;-79
2022/11/23 03:54:44;;;;;;;7.60;6.03;;;2.90;99.90;;;;;;5098295;28;20455;-79
2022/11/23 03:57:11;;;;;;;7.13;6.10;;;3.00;99.90;;;;;;5098192;28;20450;-80
2022/11/23 03:59:37;;;;;;;7.57;5.83;;;3.00;99.90;;;;;;5090700;28;20827;-80
2022/11/23 04:02:04;;;;;;;6.57;4.73;;;3.00;99.90;;;;;;5109280;27;20450;-80
2022/11/23 04:04:31;;;;;;;7.10;6.40;;;3.10;99.90;;;;;;5102768;28;20779;-80
2022/11/23 04:06:58;;;;;;;6.73;5.33;;;3.10;99.90;;;;;;5094694;28;20486;-79
2022/11/23 04:09:27;;;;;;;6.30;5.10;;;3.10;99.90;;;;;;5089382;28;20455;-80
2022/11/23 04:11:54;;;;;;;7.07;5.53;;;3.00;99.90;;;;;;5106436;28;20446;-79
2022/11/23 04:14:21;;;;;;;7.90;5.40;;;3.00;99.90;;;;;;5108400;28;20484;-80
2022/11/23 04:16:48;;;;;;;6.67;6.03;;;3.10;99.90;;;;;;5107711;28;20984;-79
2022/11/23 04:19:15;;;;;;;5.33;4.83;;;3.10;99.90;;;;;;5104884;28;20509;-80
2022/11/23 04:21:42;;;;;;;5.90;5.03;;;3.10;99.90;;;;;;5094293;28;20516;-80
2022/11/23 04:24:09;;;;;;;6.07;5.57;;;3.10;99.90;;;;;;5088436;28;20531;-79
2022/11/23 04:26:39;;;;;;;6.27;5.50;;;3.10;99.90;;;;;;5101960;28;20446;-79
2022/11/23 04:29:06;;;;;;;6.67;5.83;;;3.20;99.90;;;;;;5103239;28;20457;-80
2022/11/23 04:31:33;;;;;;;6.90;5.30;;;3.10;99.90;;;;;;5084465;28;20443;-80
2022/11/23 04:34:00;;;;;;;7.50;6.77;;;3.10;99.90;;;;;;5088322;28;20471;-80
2022/11/23 04:36:27;;;;;;;7.20;5.97;;;3.10;99.90;;;;;;5095934;28;20446;-80
2022/11/23 04:38:54;;;;;;;6.60;5.07;;;3.10;99.90;;;;;;5099062;28;20565;-80
2022/11/23 04:41:21;;;;;;;6.10;5.50;;;3.10;99.90;;;;;;5094166;28;20493;-80
2022/11/23 04:43:50;;;;;;;7.03;6.30;;;3.20;99.90;;;;;;5096950;28;20838;-80
2022/11/23 04:46:18;;;;;;;6.90;5.70;;;3.10;99.90;;;;;;5091574;28;20469;-80
2022/11/23 04:48:44;;;;;;;5.87;5.27;;;3.10;99.90;;;;;;5093615;28;20455;-80
2022/11/23 04:51:11;;;;;;;7.20;5.70;;;3.20;99.90;;;;;;5088442;28;20497;-79
2022/11/23 04:53:39;;;;;;;7.47;6.20;;;3.10;99.90;;;;;;5089484;28;20523;-80
2022/11/23 04:56:06;;;;;;;6.03;5.43;;;3.10;99.90;;;;;;5091574;28;20473;-80
2022/11/23 04:58:35;;;;;;;8.30;6.17;;;3.20;99.90;;;;;;5083472;28;20510;-80
2022/11/23 05:01:05;;;;;;;7.33;6.10;;;3.10;99.90;;;;;;5097098;27;20868;-80
2022/11/23 05:03:33;;;;;;;8.17;7.40;;;3.10;99.90;;;;;;5084611;28;20480;-80
2022/11/23 05:06:01;;;;;;;6.40;5.33;;;3.10;99.90;;;;;;5091473;28;20553;-80
2022/11/23 05:08:28;;;;;;;7.73;7.03;;;3.20;99.90;;;;;;5095637;28;20906;-80
2022/11/23 05:10:55;;;;;;;9.33;6.50;;;3.10;99.90;;;;;;5091275;28;20637;-80
2022/11/23 05:13:23;;;;;;;7.60;6.37;;;3.10;99.90;;;;;;5089893;28;20462;-80
2022/11/23 05:15:50;;;;;;;7.37;6.50;;;3.10;99.90;;;;;;5086059;28;20529;-79
2022/11/23 05:18:18;;;;;;;8.87;7.00;;;3.10;99.90;;;;;;5084361;28;20970;-79
2022/11/23 05:20:46;;;;;;;8.43;6.10;;;3.20;99.90;;;;;;5090933;28;20459;-79
2022/11/23 05:23:13;;;;;;;5.77;5.13;;;3.20;99.90;;;;;;5094233;28;20517;-79
2022/11/23 05:25:40;;;;;;;6.60;5.90;;;3.20;99.90;;;;;;5087103;28;20516;-80
2022/11/23 05:28:07;;;;;;;7.97;5.97;;;3.20;99.90;;;;;;5088203;28;20544;-80
2022/11/23 05:30:34;;;;;;;10.97;7.83;;;3.20;99.90;;;;;;5089289;28;20461;-80
2022/11/23 05:33:01;;;;;;;6.50;5.80;;;3.20;99.90;;;;;;5089521;28;20924;-80
2022/11/23 05:35:30;;;;;;;10.37;7.77;;;3.30;99.90;;;;;;5084369;28;20458;-80
2022/11/23 05:37:57;;;;;;;10.23;8.40;;;3.30;99.90;;;;;;5087779;28;20586;-80
2022/11/23 05:40:24;;;;;;;9.13;8.20;;;3.40;99.90;;;;;;5084903;28;20542;-79
2022/11/23 05:42:54;;;;;;;9.07;8.17;;;3.40;99.90;;;;;;5086356;28;21310;-79
2022/11/23 05:45:22;;;;;;;9.47;8.57;;;3.50;99.90;;;;;;5083477;28;20851;-80
2022/11/23 05:47:50;;;;;;;12.17;8.13;;;3.50;99.90;;;;;;5090917;28;20494;-79
2022/11/23 05:50:17;;;;;;;9.53;8.37;;;3.50;99.90;;;;;;5093763;28;20458;-79
2022/11/23 05:52:46;;;;;;;11.63;8.17;;;3.50;99.90;;;;;;5086558;28;20812;-79
2022/11/23 05:55:13;;;;;;;10.70;7.77;;;3.60;99.90;;;;;;5088141;28;21193;-79
2022/11/23 05:57:40;;;;;;;9.00;7.40;;;3.60;99.90;;;;;;5090209;28;20512;-80
2022/11/23 06:00:10;;;;;;;8.83;7.23;;;3.60;99.90;;;;;;5096748;28;20825;-79
2022/11/23 06:02:37;;;;;;;9.83;8.30;;;3.50;99.90;;;;;;5096223;28;20552;-79
2022/11/23 06:05:04;;;;;;;10.93;8.27;;;3.50;99.90;;;;;;5094195;28;20458;-79
2022/11/23 06:07:32;;;;;;;9.93;8.90;;;3.50;99.90;;;;;;5096325;28;20562;-79
2022/11/23 06:10:00;;;;;;;24.07;11.00;;;3.40;99.90;;;;;;5097848;28;21037;-79
2022/11/23 06:12:28;;;;;;;39.50;12.30;;;3.30;99.90;;;;;;5100750;28;20465;-79
2022/11/23 06:14:55;;;;;;;46.30;14.27;;;3.30;99.90;;;;;;5102206;28;20496;-79
2022/11/23 06:17:22;;;;;;;21.80;8.10;;;3.30;99.90;;;;;;5102988;28;20461;-79
2022/11/23 06:19:49;;;;;;;17.60;8.30;;;3.30;99.90;;;;;;5108112;28;20902;-79
2022/11/23 06:22:16;;;;;;;8.87;7.97;;;3.20;99.90;;;;;;5090214;28;20462;-79
2022/11/23 06:24:43;;;;;;;15.27;8.90;;;3.20;99.90;;;;;;5094153;28;20454;-79
2022/11/23 06:27:15;;;;;;;10.83;7.73;;;3.10;99.90;;;;;;5098698;28;20494;-79
2022/11/23 06:29:42;;;;;;;9.60;8.57;;;3.10;99.90;;;;;;5090564;28;20542;-79
2022/11/23 06:32:09;;;;;;;11.90;8.43;;;3.10;99.90;;;;;;5090369;28;20458;-79
2022/11/23 06:34:36;;;;;;;16.33;8.43;;;3.10;99.90;;;;;;5100387;28;20500;-79
2022/11/23 06:37:03;;;;;;;15.23;9.50;;;3.20;99.90;;;;;;5087426;28;20490;-79
2022/11/23 06:39:30;;;;;;;12.67;8.87;;;3.20;99.90;;;;;;5086944;28;20884;-79
2022/11/23 06:41:57;;;;;;;16.90;10.37;;;3.20;99.90;;;;;;5086183;28;20490;-79
2022/11/23 06:44:25;;;;;;;12.50;8.73;;;3.20;99.90;;;;;;5093778;28;20528;-80
2022/11/23 06:46:52;;;;;;;12.20;9.50;;;3.30;99.90;;;;;;5094359;28;20557;-79
2022/11/23 06:49:20;;;;;;;19.83;11.60;;;3.30;99.90;;;;;;5089390;28;20615;-79
2022/11/23 06:51:47;;;;;;;15.03;9.60;;;3.30;99.90;;;;;;5097556;28;20452;-79
2022/11/23 06:54:14;;;;;;;14.57;9.93;;;3.30;99.90;;;;;;5086966;28;20454;-80
2022/11/23 06:56:41;;;;;;;10.60;8.33;;;3.30;99.90;;;;;;5091393;28;20457;-80
2022/11/23 06:59:08;;;;;;;13.07;9.57;;;3.30;99.90;;;;;;5086127;28;22181;-79
2022/11/23 07:01:36;;;;;;;13.03;9.17;;;3.20;99.90;;;;;;5095496;28;20522;-79
2022/11/23 07:04:03;;;;;;;9.80;7.37;;;3.20;99.90;;;;;;5086484;28;20515;-79
2022/11/23 07:06:30;;;;;;;11.37;9.80;;;3.40;99.90;;;;;;5083077;28;20524;-79
2022/11/23 07:08:57;;;;;;;12.43;9.07;;;3.50;99.90;;;;;;5088442;28;21006;-80
2022/11/23 07:11:24;;;;;;;14.50;9.83;;;3.60;99.90;;;;;;5082902;28;20525;-80
2022/11/23 07:13:51;;;;;;;14.97;10.77;;;3.60;99.90;;;;;;5088735;28;20462;-79
2022/11/23 07:16:18;;;;;;;15.90;11.10;;;3.70;99.90;;;;;;5093756;28;20499;-79
2022/11/23 07:18:46;;;;;;;16.97;12.87;;;3.80;99.90;;;;;;5097627;28;20482;-80
2022/11/23 07:21:13;;;;;;;12.47;9.40;;;3.80;99.90;;;;;;5091804;28;20531;-80
2022/11/23 07:23:40;;;;;;;24.33;14.53;;;3.90;99.90;;;;;;5096699;28;20885;-80
2022/11/23 07:26:07;;;;;;;17.73;15.27;;;4.00;99.90;;;;;;5097698;28;21048;-80
2022/11/23 07:28:35;;;;;;;24.70;15.37;;;4.10;99.90;;;;;;5093297;28;20574;-80
2022/11/23 07:31:02;;;;;;;15.37;11.40;;;4.00;99.90;;;;;;5087131;28;20513;-80
2022/11/23 07:33:29;;;;;;;23.83;18.20;;;4.10;99.90;;;;;;5087065;28;20466;-82
2022/11/23 07:36:00;;;;;;;13.57;11.30;;;4.10;99.90;;;;;;5089021;28;20493;-82
2022/11/23 07:38:27;;;;;;;13.63;10.37;;;4.20;99.90;;;;;;5088377;28;20470;-82
2022/11/23 07:40:54;;;;;;;17.50;13.77;;;4.30;99.90;;;;;;5085951;28;21003;-82
2022/11/23 07:43:22;;;;;;;15.80;11.87;;;4.30;99.90;;;;;;5093386;28;20470;-82
2022/11/23 07:45:49;;;;;;;17.93;12.70;;;4.30;99.90;;;;;;5083772;28;20990;-82
2022/11/23 07:48:16;;;;;;;18.30;15.87;;;4.40;99.90;;;;;;5086770;28;20516;-80
2022/11/23 07:50:43;;;;;;;12.40;10.80;;;4.40;99.90;;;;;;5086090;28;20839;-80
2022/11/23 07:53:12;;;;;;;15.60;13.20;;;4.40;99.90;;;;;;5086126;28;20828;-80
2022/11/23 07:55:39;;;;;;;14.67;11.27;;;4.40;99.90;;;;;;5084261;28;20512;-80
2022/11/23 07:58:06;;;;;;;14.30;10.87;;;4.30;99.90;;;;;;5088954;28;21120;-80
2022/11/23 08:00:32;;;;;;;14.30;11.13;;;4.30;99.90;;;;;;5085057;28;20904;-80
2022/11/23 08:03:00;;;;;;;22.10;11.70;;;4.30;99.90;;;;;;5090435;28;20520;-80
2022/11/23 08:05:27;;;;;;;24.60;18.00;;;4.40;99.90;;;;;;5086258;28;20479;-81
2022/11/23 08:07:59;;;;;;;20.60;16.60;;;4.40;99.90;;;;;;5096064;28;20453;-81
2022/11/23 08:10:27;;;;;;;14.03;11.10;;;4.50;99.90;;;;;;5090113;28;20484;-81
2022/11/23 08:12:57;;;;;;;12.47;9.90;;;4.40;99.90;;;;;;5092578;28;20467;-80
2022/11/23 08:15:26;;;;;;;11.90;10.30;;;4.50;99.90;;;;;;5093188;28;20459;-80
2022/11/23 08:17:56;;;;;;;12.83;11.30;;;4.50;99.90;;;;;;5088395;28;21080;-82
2022/11/23 08:20:23;;;;;;;19.70;16.87;;;4.70;99.90;;;;;;5095820;27;20478;-82
2022/11/23 08:22:50;;;;;;;16.20;11.93;;;4.60;99.90;;;;;;5091422;28;20536;-82
2022/11/23 08:25:17;;;;;;;19.20;12.40;;;4.80;99.90;;;;;;5091153;28;20543;-82
2022/11/23 08:27:45;;;;;;;11.90;9.70;;;4.80;99.90;;;;;;5098626;28;20482;-82
2022/11/23 08:30:13;;;;;;;10.93;9.83;;;4.70;99.90;;;;;;5094322;28;20460;-82
2022/11/23 08:32:40;;;;;;;32.57;17.27;;;4.80;99.90;;;;;;5092094;28;20915;-83
2022/11/23 08:35:08;;;;;;;11.87;10.43;;;4.90;99.90;;;;;;5093354;28;20464;-82
2022/11/23 08:37:35;;;;;;;13.90;9.77;;;5.00;99.90;;;;;;5086163;28;20489;-82
2022/11/23 08:40:02;;;;;;;14.20;9.90;;;4.90;99.90;;;;;;5090748;28;20484;-82
2022/11/23 08:42:28;;;;;;;13.13;10.13;;;4.90;99.90;;;;;;5091726;28;20511;-81
2022/11/23 08:44:58;;;;;;;11.60;9.20;;;5.00;99.90;;;;;;5083882;28;20493;-82
2022/11/23 08:47:26;;;;;;;14.63;11.83;;;5.00;99.90;;;;;;5090701;28;20462;-82
2022/11/23 08:49:53;;;;;;;12.30;10.23;;;5.00;99.90;;;;;;5086288;28;20450;-82
2022/11/23 08:52:20;;;;;;;12.67;10.00;;;5.10;99.90;;;;;;5085601;28;20555;-82
2022/11/23 08:54:47;;;;;;;13.57;11.43;;;5.10;99.90;;;;;;5093368;28;21006;-82
2022/11/23 08:57:14;;;;;;;12.53;8.60;;;5.10;99.90;;;;;;5094372;28;20544;-82
2022/11/23 08:59:41;;;;;;;10.83;9.80;;;4.90;99.90;;;;;;5084233;28;20536;-83
2022/11/23 09:02:10;;;;;;;11.10;10.00;;;4.90;99.90;;;;;;5088591;28;20448;-83
2022/11/23 09:04:37;;;;;;;13.10;11.07;;;4.90;99.90;;;;;;5084415;28;20470;-83
2022/11/23 09:07:04;;;;;;;14.37;12.30;;;5.10;99.90;;;;;;5091764;28;20968;-83
2022/11/23 09:09:31;;;;;;;12.63;9.27;;;5.10;99.90;;;;;;5085110;28;20455;-83
2022/11/23 09:11:58;;;;;;;11.40;9.43;;;5.10;99.90;;;;;;5096521;28;20450;-81
2022/11/23 09:14:26;;;;;;;10.30;7.63;;;5.10;99.90;;;;;;5088638;28;20500;-83
2022/11/23 09:16:53;;;;;;;9.07;7.33;;;5.10;99.90;;;;;;5092263;28;20459;-83
2022/11/23 09:19:21;;;;;;;12.30;8.20;;;5.30;99.90;;;;;;5100703;27;20949;-83
2022/11/23 09:21:48;;;;;;;11.73;9.20;;;5.30;99.90;;;;;;5094002;28;20466;-83
2022/11/23 09:24:15;;;;;;;12.47;9.00;;;5.40;99.90;;;;;;5090371;28;21010;-83
2022/11/23 09:26:42;;;;;;;13.00;10.00;;;5.40;99.90;;;;;;5091270;28;20511;-83
2022/11/23 09:29:09;;;;;;;11.93;10.70;;;5.60;99.90;;;;;;5090370;28;20502;-83
2022/11/23 09:31:36;;;;;;;12.40;10.00;;;5.50;99.90;;;;;;5090960;28;20463;-83
2022/11/23 09:34:04;;;;;;;9.77;8.77;;;5.40;99.90;;;;;;5090761;28;20515;-83
2022/11/23 09:36:32;;;;;;;11.33;10.00;;;5.40;99.90;;;;;;5095099;28;20552;-83
2022/11/23 09:38:59;;;;;;;10.63;9.10;;;5.40;99.90;;;;;;5093995;28;20516;-83
2022/11/23 09:42:02;;;;;;;11.60;8.40;;;5.40;99.90;;;;;;5090596;28;20536;-83
2022/11/23 09:44:40;;;;;;;12.60;9.50;;;5.40;99.90;;;;;;5089124;28;20503;-83
2022/11/23 09:47:21;;;;;;;10.47;8.87;;;5.30;99.90;;;;;;5093307;28;20493;-83
2022/11/23 09:50:00;;;;;;;13.30;9.17;;;5.30;99.90;;;;;;5089758;28;20458;-83
2022/11/23 09:52:31;;;;;;;9.87;8.63;;;5.30;99.90;;;;;;5085343;28;20447;-83
2022/11/23 09:55:03;;;;;;;11.17;7.60;;;5.30;99.90;;;;;;5092864;28;20513;-83
2022/11/23 09:57:33;;;;;;;10.87;9.50;;;5.30;99.90;;;;;;5086176;28;21451;-83
2022/11/23 10:00:03;;;;;;;10.20;8.90;;;5.40;99.90;;;;;;5091496;28;20539;-83
2022/11/23 10:02:33;;;;;;;9.03;7.70;;;5.30;99.90;;;;;;5091174;28;20478;-83
2022/11/23 10:05:03;;;;;;;9.33;7.93;;;5.20;99.90;;;;;;5101134;28;20452;-83
2022/11/23 10:07:46;;;;;;;12.00;10.20;;;5.30;99.90;;;;;;5097279;28;20468;-81
2022/11/23 10:10:30;;;;;;;10.20;8.23;;;5.30;99.90;;;;;;5096725;28;20999;-81
2022/11/23 10:13:10;;;;;;;10.20;7.57;;;5.40;99.90;;;;;;5098223;28;20443;-81
2022/11/23 10:15:53;;;;;;;9.10;7.43;;;5.50;99.90;;;;;;5091680;28;21151;-81
2022/11/23 10:18:30;;;;;;;9.00;8.07;;;5.40;99.90;;;;;;5103304;28;21135;-81
2022/11/23 10:21:04;;;;;;;9.57;8.57;;;5.40;99.90;;;;;;5090642;28;21075;-81
2022/11/23 10:23:42;;;;;;;11.93;9.17;;;5.40;99.90;;;;;;5091042;28;20497;-82
2022/11/23 10:26:12;;;;;;;10.37;9.23;;;5.30;99.90;;;;;;5089565;28;21103;-82
2022/11/23 10:28:39;;;;;;;16.07;11.57;;;5.10;99.90;;;;;;5091967;28;20987;-83
2022/11/23 10:31:14;;;;;;;11.43;10.23;;;5.20;99.90;;;;;;5094798;28;20515;-83
2022/11/23 10:33:53;;;;;;;10.90;9.00;;;5.20;99.90;;;;;;5088115;28;20453;-82
2022/11/23 10:36:20;;;;;;;9.77;8.77;;;5.30;99.90;;;;;;5084687;28;20537;-80
2022/11/23 10:38:51;;;;;;;8.90;8.00;;;5.30;99.90;;;;;;5092143;28;20949;-80
2022/11/23 10:41:18;;;;;;;7.33;6.63;;;5.30;99.90;;;;;;5088917;28;20487;-80
2022/11/23 10:43:49;;;;;;;9.00;7.40;;;5.30;99.90;;;;;;5084472;28;20458;-80
2022/11/23 10:46:31;;;;;;;8.70;7.07;;;5.30;99.90;;;;;;5090745;28;20458;-80
2022/11/23 10:49:17;;;;;;;9.73;7.90;;;5.30;99.90;;;;;;5092719;28;20445;-81
2022/11/23 10:51:56;;;;;;;8.43;7.40;;;5.40;99.90;;;;;;5085556;28;20546;-80
2022/11/23 10:54:28;;;;;;;9.90;7.47;;;5.30;99.90;;;;;;5093689;28;21132;-81
2022/11/23 10:56:57;;;;;;;15.00;12.97;;;5.20;99.90;;;;;;5092600;27;20458;-81
2022/11/23 10:59:36;;;;;;;11.33;9.37;;;5.30;99.90;;;;;;5099435;28;20449;-82
2022/11/23 11:02:15;;;;;;;12.63;8.57;;;5.20;99.90;;;;;;5093989;28;20865;-81
2022/11/23 11:04:43;;;;;;;9.53;8.33;;;5.30;99.90;;;;;;5089254;28;20542;-82
2022/11/23 11:07:27;;;;;;;9.87;8.80;;;5.50;99.90;;;;;;5098970;28;20514;-83
2022/11/23 11:09:59;;;;;;;11.73;10.00;;;5.50;99.90;;;;;;5100272;28;20443;-81
2022/11/23 11:12:27;;;;;;;12.10;8.73;;;5.50;99.90;;;;;;5092700;28;20943;-82
2022/11/23 11:15:02;;;;;;;9.17;7.63;;;5.50;99.90;;;;;;5093416;27;20459;-82
2022/11/23 11:17:32;;;;;;;8.10;7.40;;;5.70;99.90;;;;;;5096403;28;20865;-82
2022/11/23 11:19:59;;;;;;;8.37;6.63;;;5.80;99.90;;;;;;5096994;27;20486;-82
2022/11/23 11:22:34;;;;;;;9.23;7.87;;;5.80;99.90;;;;;;5092012;28;20854;-82
2022/11/23 11:25:05;;;;;;;9.87;8.33;;;5.90;99.90;;;;;;5099866;28;20463;-79
2022/11/23 11:27:33;;;;;;;11.50;9.40;;;5.90;99.90;;;;;;5089299;28;20487;-79
2022/11/23 11:30:06;;;;;;;11.07;9.83;;;5.80;99.90;;;;;;5096423;27;20490;-80
2022/11/23 11:32:44;;;;;;;8.93;8.00;;;5.80;99.90;;;;;;5096625;28;20498;-81
2022/11/23 11:35:16;;;;;;;9.87;8.30;;;5.70;99.90;;;;;;5092533;28;20540;-81
2022/11/23 11:37:45;;;;;;;8.90;7.27;;;5.60;99.90;;;;;;5097846;28;20479;-81
2022/11/23 11:40:21;;;;;;;14.53;9.23;;;5.70;99.90;;;;;;5089630;28;20539;-82
2022/11/23 11:42:54;;;;;;;11.50;9.30;;;5.70;99.90;;;;;;5090713;28;20734;-81
2022/11/23 11:45:25;;;;;;;10.93;8.70;;;5.60;99.90;;;;;;5090591;28;20555;-81
2022/11/23 11:47:59;;;;;;;12.20;11.00;;;5.60;99.90;;;;;;5101857;28;20492;-81
2022/11/23 11:50:30;;;;;;;10.13;8.87;;;5.60;99.90;;;;;;5086450;28;20831;-81
2022/11/23 11:53:03;;;;;;;10.80;9.13;;;5.70;99.90;;;;;;5087635;28;20455;-81
2022/11/23 11:55:45;;;;;;;13.80;11.53;;;5.70;99.90;;;;;;5089045;28;20584;-81
2022/11/23 11:58:15;;;;;;;11.20;9.20;;;5.60;99.90;;;;;;5091658;28;20521;-81
2022/11/23 12:00:43;;;;;;;12.97;9.83;;;5.70;99.90;;;;;;5094784;28;21216;-80
2022/11/23 12:03:20;;;;;;;12.80;9.47;;;5.70;99.90;;;;;;5093538;28;20474;-80
2022/11/23 12:05:49;;;;;;;11.90;9.20;;;5.60;99.90;;;;;;5071404;28;20559;-81
2022/11/23 12:08:22;;;;;;;10.97;9.23;;;5.60;99.90;;;;;;5077550;28;20932;-80
2022/11/23 12:10:53;;;;;;;13.83;10.60;;;5.70;99.90;;;;;;5074701;28;20545;-81
2022/11/23 12:13:22;;;;;;;12.50;10.50;;;5.70;99.90;;;;;;5078977;27;20584;-81
2022/11/23 12:15:55;;;;;;;12.17;10.17;;;5.80;99.90;;;;;;5087423;27;20518;-81
2022/11/23 12:18:51;;;;;;;12.60;10.43;;;5.80;99.90;;;;;;5101122;28;20467;-81
2022/11/23 12:21:55;;;;;;;12.87;10.73;;;5.80;99.90;;;;;;5097115;28;20544;-81
2022/11/23 12:24:35;;;;;;;9.27;7.50;;;5.90;99.90;;;;;;5097642;28;20836;-80
2022/11/23 12:27:11;;;;;;;13.47;10.50;;;5.90;99.90;;;;;;5109346;28;20481;-80
2022/11/23 12:30:01;;;;;;;11.73;9.67;;;6.10;99.90;;;;;;5094590;28;20919;-81
2022/11/23 12:32:39;;;;;;;10.97;8.63;;;6.20;99.90;;;;;;5093682;28;20461;-81
2022/11/23 12:35:28;;;;;;;14.10;10.37;;;6.10;99.90;;;;;;5088374;28;20533;-81
2022/11/23 12:38:09;;;;;;;14.60;8.90;;;6.10;99.90;;;;;;5087681;28;20667;-82
2022/11/23 12:40:59;;;;;;;9.73;8.10;;;6.10;99.90;;;;;;5087684;28;20575;-81
2022/11/23 12:43:32;;;;;;;7.87;6.73;;;6.20;99.90;;;;;;5093291;28;20469;-82
2022/11/23 12:46:11;;;;;;;16.83;10.73;;;6.30;99.90;;;;;;5087378;28;21973;-81
2022/11/23 12:48:51;;;;;;;12.67;9.23;;;6.30;99.90;;;;;;5099815;28;21073;-81
2022/11/23 12:51:28;;;;;;;9.90;7.53;;;6.40;99.90;;;;;;5088607;28;20898;-82
2022/11/23 12:54:17;;;;;;;11.40;6.87;;;6.30;99.90;;;;;;5086084;28;20462;-81
2022/11/23 12:56:57;;;;;;;12.97;8.73;;;6.30;99.90;;;;;;5084998;28;20519;-81
2022/11/23 12:59:39;;;;;;;17.00;9.10;;;6.30;99.90;;;;;;5090663;28;20470;-81
2022/11/23 13:02:16;;;;;;;14.47;10.00;;;6.20;99.90;;;;;;5102587;28;20832;-81
2022/11/23 13:05:21;;;;;;;8.90;8.10;;;6.10;99.90;;;;;;5097164;28;20693;-81